sensor_id;sensor_type;location;lat;lon;timestamp;pressure;altitude;pressure_sealevel;temperature;humidity
65666;BME280;52365;47.464;18.976;2024-01-15T00:00:05;98593.56;;;0.72;65.52
65666;BME280;52365;47.464;18.976;2024-01-15T00:00:26;98598.28;;;0.64;65.92
65666;BME280;52365;47.464;18.976;2024-01-15T00:00:42;98597.56;;;0.64;66.22
65666;BME280;52365;47.464;18.976;2024-01-15T00:01:03;98602.59;;;0.58;66.51
65666;BME280;52365;47.464;18.976;2024-01-15T00:01:24;98599.28;;;0.54;66.93
65666;BME280;52365;47.464;18.976;2024-01-15T00:01:46;98599.47;;;0.63;66.92
65666;BME280;52365;47.464;18.976;2024-01-15T00:02:07;98603.25;;;0.79;66.59
65666;BME280;52365;47.464;18.976;2024-01-15T00:02:28;98604.94;;;0.72;66.39
65666;BME280;52365;47.464;18.976;2024-01-15T00:02:49;98595.06;;;0.73;66.40
65666;BME280;52365;47.464;18.976;2024-01-15T00:03:11;98593.97;;;0.87;66.26
65666;BME280;52365;47.464;18.976;2024-01-15T00:03:27;98593.16;;;1.06;65.80
65666;BME280;52365;47.464;18.976;2024-01-15T00:03:48;98594.03;;;1.16;65.36
65666;BME280;52365;47.464;18.976;2024-01-15T00:04:09;98594.25;;;1.21;64.83
65666;BME280;52365;47.464;18.976;2024-01-15T00:04:25;98587.41;;;1.08;64.63
65666;BME280;52365;47.464;18.976;2024-01-15T00:04:46;98597.78;;;1.02;64.77
65666;BME280;52365;47.464;18.976;2024-01-15T00:05:07;98595.66;;;0.97;64.89
65666;BME280;52365;47.464;18.976;2024-01-15T00:05:28;98590.81;;;0.92;64.99
65666;BME280;52365;47.464;18.976;2024-01-15T00:05:48;98584.69;;;0.95;65.12
65666;BME280;52365;47.464;18.976;2024-01-15T00:06:10;98581.88;;;0.86;65.20
65666;BME280;52365;47.464;18.976;2024-01-15T00:06:25;98587.50;;;0.88;65.32
65666;BME280;52365;47.464;18.976;2024-01-15T00:06:49;98593.53;;;1.05;65.27
65666;BME280;52365;47.464;18.976;2024-01-15T00:07:10;98591.63;;;1.05;65.07
65666;BME280;52365;47.464;18.976;2024-01-15T00:07:31;98590.41;;;0.93;65.06
65666;BME280;52365;47.464;18.976;2024-01-15T00:07:51;98585.69;;;1.01;65.14
65666;BME280;52365;47.464;18.976;2024-01-15T00:08:12;98589.63;;;1.25;64.89
65666;BME280;52365;47.464;18.976;2024-01-15T00:08:33;98586.97;;;1.25;64.52
65666;BME280;52365;47.464;18.976;2024-01-15T00:08:54;98585.19;;;1.06;64.59
65666;BME280;52365;47.464;18.976;2024-01-15T00:09:15;98583.66;;;1.05;64.77
65666;BME280;52365;47.464;18.976;2024-01-15T00:09:31;98587.38;;;1.24;64.60
65666;BME280;52365;47.464;18.976;2024-01-15T00:09:52;98580.53;;;1.39;64.33
65666;BME280;52365;47.464;18.976;2024-01-15T00:10:13;98583.78;;;1.60;63.76
65666;BME280;52365;47.464;18.976;2024-01-15T00:10:34;98580.53;;;1.68;63.25
65666;BME280;52365;47.464;18.976;2024-01-15T00:10:55;98585.22;;;1.77;62.85
65666;BME280;52365;47.464;18.976;2024-01-15T00:11:16;98573.09;;;1.89;62.41
65666;BME280;52365;47.464;18.976;2024-01-15T00:11:37;98576.63;;;1.86;62.15
65666;BME280;52365;47.464;18.976;2024-01-15T00:11:59;98571.09;;;1.93;61.87
65666;BME280;52365;47.464;18.976;2024-01-15T00:12:20;98572.69;;;1.90;61.76
65666;BME280;52365;47.464;18.976;2024-01-15T00:12:41;98573.44;;;1.91;61.68
65666;BME280;52365;47.464;18.976;2024-01-15T00:13:02;98568.34;;;1.96;61.57
65666;BME280;52365;47.464;18.976;2024-01-15T00:13:18;98564.50;;;1.97;61.46
65666;BME280;52365;47.464;18.976;2024-01-15T00:13:39;98573.88;;;2.15;61.02
65666;BME280;52365;47.464;18.976;2024-01-15T00:14:00;98565.91;;;1.89;61.06
65666;BME280;52365;47.464;18.976;2024-01-15T00:14:22;98565.03;;;1.92;61.29
65666;BME280;52365;47.464;18.976;2024-01-15T00:14:43;98565.38;;;1.94;61.29
65666;BME280;52365;47.464;18.976;2024-01-15T00:14:59;98576.69;;;1.69;61.26
65666;BME280;52365;47.464;18.976;2024-01-15T00:15:15;98563.47;;;1.53;61.54
65666;BME280;52365;47.464;18.976;2024-01-15T00:15:36;98572.94;;;1.54;61.93
65666;BME280;52365;47.464;18.976;2024-01-15T00:15:57;98576.34;;;1.55;62.23
65666;BME280;52365;47.464;18.976;2024-01-15T00:16:17;98571.69;;;1.59;62.34
65666;BME280;52365;47.464;18.976;2024-01-15T00:16:33;98565.41;;;1.65;62.28
65666;BME280;52365;47.464;18.976;2024-01-15T00:16:54;98572.22;;;1.66;62.25
65666;BME280;52365;47.464;18.976;2024-01-15T00:17:15;98567.03;;;1.63;62.24
65666;BME280;52365;47.464;18.976;2024-01-15T00:17:36;98561.94;;;1.39;62.54
65666;BME280;52365;47.464;18.976;2024-01-15T00:17:57;98559.63;;;1.12;63.02
65666;BME280;52365;47.464;18.976;2024-01-15T00:18:18;98557.44;;;1.23;63.37
65666;BME280;52365;47.464;18.976;2024-01-15T00:18:39;98555.19;;;1.51;63.20
65666;BME280;52365;47.464;18.976;2024-01-15T00:19:00;98547.81;;;1.71;62.71
65666;BME280;52365;47.464;18.976;2024-01-15T00:19:21;98550.88;;;1.70;62.28
65666;BME280;52365;47.464;18.976;2024-01-15T00:19:42;98555.78;;;1.84;62.04
65666;BME280;52365;47.464;18.976;2024-01-15T00:20:04;98549.62;;;1.87;61.83
65666;BME280;52365;47.464;18.976;2024-01-15T00:20:25;98545.16;;;1.97;61.54
65666;BME280;52365;47.464;18.976;2024-01-15T00:20:46;98546.03;;;1.81;61.34
65666;BME280;52365;47.464;18.976;2024-01-15T00:21:02;98545.06;;;1.88;61.46
65666;BME280;52365;47.464;18.976;2024-01-15T00:21:24;98542.28;;;1.79;61.48
65666;BME280;52365;47.464;18.976;2024-01-15T00:21:39;98546.81;;;1.52;61.80
65666;BME280;52365;47.464;18.976;2024-01-15T00:22:00;98543.97;;;1.31;62.29
65666;BME280;52365;47.464;18.976;2024-01-15T00:22:21;98546.72;;;1.27;62.85
65666;BME280;52365;47.464;18.976;2024-01-15T00:22:42;98543.09;;;1.21;63.30
65666;BME280;52365;47.464;18.976;2024-01-15T00:23:03;98539.19;;;1.25;63.42
65666;BME280;52365;47.464;18.976;2024-01-15T00:23:24;98540.31;;;1.41;63.25
65666;BME280;52365;47.464;18.976;2024-01-15T00:23:45;98543.28;;;1.43;63.09
65666;BME280;52365;47.464;18.976;2024-01-15T00:24:06;98543.25;;;1.30;63.00
65666;BME280;52365;47.464;18.976;2024-01-15T00:24:22;98542.34;;;1.20;63.17
65666;BME280;52365;47.464;18.976;2024-01-15T00:24:43;98537.78;;;1.21;63.29
65666;BME280;52365;47.464;18.976;2024-01-15T00:25:04;98539.66;;;1.37;63.28
65666;BME280;52365;47.464;18.976;2024-01-15T00:25:25;98537.41;;;1.35;63.32
65666;BME280;52365;47.464;18.976;2024-01-15T00:25:46;98534.62;;;1.26;63.27
65666;BME280;52365;47.464;18.976;2024-01-15T00:26:07;98543.00;;;1.24;63.29
65666;BME280;52365;47.464;18.976;2024-01-15T00:26:28;98537.37;;;1.22;63.35
65666;BME280;52365;47.464;18.976;2024-01-15T00:26:49;98539.84;;;1.30;63.40
65666;BME280;52365;47.464;18.976;2024-01-15T00:27:10;98540.78;;;1.23;63.41
65666;BME280;52365;47.464;18.976;2024-01-15T00:27:31;98540.41;;;1.08;63.63
65666;BME280;52365;47.464;18.976;2024-01-15T00:27:52;98533.31;;;0.89;64.07
65666;BME280;52365;47.464;18.976;2024-01-15T00:28:13;98530.25;;;0.74;64.58
65666;BME280;52365;47.464;18.976;2024-01-15T00:28:36;98527.28;;;0.72;64.93
65666;BME280;52365;47.464;18.976;2024-01-15T00:28:57;98524.56;;;0.75;65.07
65666;BME280;52365;47.464;18.976;2024-01-15T00:29:18;98527.28;;;0.88;64.97
65666;BME280;52365;47.464;18.976;2024-01-15T00:29:39;98531.84;;;1.17;64.62
65666;BME280;52365;47.464;18.976;2024-01-15T00:30:00;98526.56;;;1.30;64.07
65666;BME280;52365;47.464;18.976;2024-01-15T00:30:21;98531.19;;;1.13;63.94
65666;BME280;52365;47.464;18.976;2024-01-15T00:30:42;98532.72;;;0.97;64.04
65666;BME280;52365;47.464;18.976;2024-01-15T00:30:58;98526.41;;;0.91;64.20
65666;BME280;52365;47.464;18.976;2024-01-15T00:31:16;98527.12;;;0.79;64.52
65666;BME280;52365;47.464;18.976;2024-01-15T00:31:32;98519.41;;;0.68;65.00
65666;BME280;52365;47.464;18.976;2024-01-15T00:31:53;98524.25;;;0.57;65.35
65666;BME280;52365;47.464;18.976;2024-01-15T00:32:14;98524.47;;;0.63;65.52
65666;BME280;52365;47.464;18.976;2024-01-15T00:32:35;98525.88;;;0.51;65.77
65666;BME280;52365;47.464;18.976;2024-01-15T00:32:56;98523.16;;;0.38;66.07
65666;BME280;52365;47.464;18.976;2024-01-15T00:33:17;98521.25;;;0.39;66.30
65666;BME280;52365;47.464;18.976;2024-01-15T00:33:38;98513.38;;;0.68;66.14
65666;BME280;52365;47.464;18.976;2024-01-15T00:33:59;98518.50;;;0.75;65.86
65666;BME280;52365;47.464;18.976;2024-01-15T00:34:19;98523.53;;;0.86;65.59
65666;BME280;52365;47.464;18.976;2024-01-15T00:34:41;98525.50;;;0.98;65.16
65666;BME280;52365;47.464;18.976;2024-01-15T00:35:02;98519.25;;;1.05;64.87
65666;BME280;52365;47.464;18.976;2024-01-15T00:35:24;98518.06;;;0.93;64.84
65666;BME280;52365;47.464;18.976;2024-01-15T00:35:40;98516.09;;;0.81;64.99
65666;BME280;52365;47.464;18.976;2024-01-15T00:36:01;98509.97;;;0.84;65.07
65666;BME280;52365;47.464;18.976;2024-01-15T00:36:22;98513.94;;;0.75;65.29
65666;BME280;52365;47.464;18.976;2024-01-15T00:36:43;98512.13;;;0.72;65.37
65666;BME280;52365;47.464;18.976;2024-01-15T00:37:04;98512.84;;;0.73;65.34
65666;BME280;52365;47.464;18.976;2024-01-15T00:37:27;98513.44;;;0.81;65.28
65666;BME280;52365;47.464;18.976;2024-01-15T00:37:48;98514.06;;;1.01;65.11
65666;BME280;52365;47.464;18.976;2024-01-15T00:38:09;98511.56;;;1.10;64.88
65666;BME280;52365;47.464;18.976;2024-01-15T00:38:30;98518.56;;;1.17;64.59
65666;BME280;52365;47.464;18.976;2024-01-15T00:38:51;98509.03;;;1.19;64.41
65666;BME280;52365;47.464;18.976;2024-01-15T00:39:12;98503.97;;;1.38;64.08
65666;BME280;52365;47.464;18.976;2024-01-15T00:39:33;98506.66;;;1.50;63.63
65666;BME280;52365;47.464;18.976;2024-01-15T00:39:54;98513.47;;;1.64;63.20
65666;BME280;52365;47.464;18.976;2024-01-15T00:40:15;98511.91;;;1.67;62.89
65666;BME280;52365;47.464;18.976;2024-01-15T00:40:36;98513.69;;;1.70;62.69
65666;BME280;52365;47.464;18.976;2024-01-15T00:40:52;98518.16;;;1.73;62.51
65666;BME280;52365;47.464;18.976;2024-01-15T00:41:14;98523.03;;;1.62;62.40
65666;BME280;52365;47.464;18.976;2024-01-15T00:41:35;98521.84;;;1.50;62.52
65666;BME280;52365;47.464;18.976;2024-01-15T00:41:55;98526.09;;;1.47;62.75
65666;BME280;52365;47.464;18.976;2024-01-15T00:42:16;98529.16;;;1.46;62.87
65666;BME280;52365;47.464;18.976;2024-01-15T00:42:37;98520.63;;;1.25;63.11
65666;BME280;52365;47.464;18.976;2024-01-15T00:42:58;98526.53;;;1.17;63.49
65666;BME280;52365;47.464;18.976;2024-01-15T00:43:19;98525.13;;;1.12;63.77
65666;BME280;52365;47.464;18.976;2024-01-15T00:43:40;98528.16;;;0.98;64.15
65666;BME280;52365;47.464;18.976;2024-01-15T00:43:56;98528.00;;;0.89;64.57
65666;BME280;52365;47.464;18.976;2024-01-15T00:44:17;98526.03;;;0.77;64.93
65666;BME280;52365;47.464;18.976;2024-01-15T00:44:38;98528.69;;;0.77;65.13
65666;BME280;52365;47.464;18.976;2024-01-15T00:44:59;98529.53;;;0.57;65.53
65666;BME280;52365;47.464;18.976;2024-01-15T00:45:20;98532.78;;;0.48;65.91
65666;BME280;52365;47.464;18.976;2024-01-15T00:45:36;98528.03;;;0.23;66.60
65666;BME280;52365;47.464;18.976;2024-01-15T00:45:58;98515.53;;;0.40;66.71
65666;BME280;52365;47.464;18.976;2024-01-15T00:46:18;98529.94;;;0.56;66.38
65666;BME280;52365;47.464;18.976;2024-01-15T00:46:43;98520.91;;;0.69;66.13
65666;BME280;52365;47.464;18.976;2024-01-15T00:47:04;98519.53;;;0.94;65.76
65666;BME280;52365;47.464;18.976;2024-01-15T00:47:20;98520.63;;;1.25;64.89
65666;BME280;52365;47.464;18.976;2024-01-15T00:47:41;98519.91;;;1.38;64.30
65666;BME280;52365;47.464;18.976;2024-01-15T00:48:02;98516.00;;;1.42;63.76
65666;BME280;52365;47.464;18.976;2024-01-15T00:48:23;98517.03;;;1.32;63.58
65666;BME280;52365;47.464;18.976;2024-01-15T00:48:39;98518.34;;;1.11;63.81
65666;BME280;52365;47.464;18.976;2024-01-15T00:49:00;98515.13;;;1.04;64.00
65666;BME280;52365;47.464;18.976;2024-01-15T00:49:16;98533.41;;;0.85;64.41
65666;BME280;52365;47.464;18.976;2024-01-15T00:49:37;98520.88;;;0.86;64.67
65666;BME280;52365;47.464;18.976;2024-01-15T00:49:53;98522.13;;;0.81;64.88
65666;BME280;52365;47.464;18.976;2024-01-15T00:50:14;98515.88;;;0.88;64.97
65666;BME280;52365;47.464;18.976;2024-01-15T00:50:30;98521.16;;;1.04;64.81
65666;BME280;52365;47.464;18.976;2024-01-15T00:50:46;98519.25;;;1.05;64.67
65666;BME280;52365;47.464;18.976;2024-01-15T00:51:07;98523.69;;;0.95;64.66
65666;BME280;52365;47.464;18.976;2024-01-15T00:51:28;98526.38;;;1.08;64.68
65666;BME280;52365;47.464;18.976;2024-01-15T00:51:49;98524.22;;;1.19;64.44
65666;BME280;52365;47.464;18.976;2024-01-15T00:52:10;98517.44;;;1.31;64.17
65666;BME280;52365;47.464;18.976;2024-01-15T00:52:31;98516.38;;;1.28;63.96
65666;BME280;52365;47.464;18.976;2024-01-15T00:52:47;98514.69;;;1.34;63.84
65666;BME280;52365;47.464;18.976;2024-01-15T00:53:08;98512.16;;;1.43;63.66
65666;BME280;52365;47.464;18.976;2024-01-15T00:53:25;98518.66;;;1.42;63.52
65666;BME280;52365;47.464;18.976;2024-01-15T00:53:46;98513.94;;;1.34;63.61
65666;BME280;52365;47.464;18.976;2024-01-15T00:54:07;98505.72;;;1.15;63.87
65666;BME280;52365;47.464;18.976;2024-01-15T00:54:28;98503.59;;;1.10;64.09
65666;BME280;52365;47.464;18.976;2024-01-15T00:54:49;98507.75;;;0.95;64.40
65666;BME280;52365;47.464;18.976;2024-01-15T00:55:10;98519.03;;;0.99;64.62
65666;BME280;52365;47.464;18.976;2024-01-15T00:55:31;98511.44;;;1.14;64.59
65666;BME280;52365;47.464;18.976;2024-01-15T00:55:52;98514.44;;;1.16;64.44
65666;BME280;52365;47.464;18.976;2024-01-15T00:56:13;98518.25;;;1.15;64.41
65666;BME280;52365;47.464;18.976;2024-01-15T00:56:34;98519.59;;;1.07;64.60
65666;BME280;52365;47.464;18.976;2024-01-15T00:56:50;98516.94;;;1.07;64.68
65666;BME280;52365;47.464;18.976;2024-01-15T00:57:11;98523.50;;;1.02;64.83
65666;BME280;52365;47.464;18.976;2024-01-15T00:57:32;98518.19;;;1.02;64.94
65666;BME280;52365;47.464;18.976;2024-01-15T00:57:53;98524.47;;;1.08;64.97
65666;BME280;52365;47.464;18.976;2024-01-15T00:58:14;98521.50;;;1.06;64.99
65666;BME280;52365;47.464;18.976;2024-01-15T00:58:30;98521.91;;;1.05;65.05
65666;BME280;52365;47.464;18.976;2024-01-15T00:58:51;98512.28;;;1.11;65.00
65666;BME280;52365;47.464;18.976;2024-01-15T00:59:12;98520.28;;;1.23;64.81
65666;BME280;52365;47.464;18.976;2024-01-15T00:59:30;98522.22;;;1.36;64.51
65666;BME280;52365;47.464;18.976;2024-01-15T00:59:51;98516.59;;;1.34;64.37
65666;BME280;52365;47.464;18.976;2024-01-15T01:00:12;98518.22;;;1.44;64.22
65666;BME280;52365;47.464;18.976;2024-01-15T01:00:28;98516.22;;;1.61;63.90
65666;BME280;52365;47.464;18.976;2024-01-15T01:00:49;98520.91;;;1.69;63.54
65666;BME280;52365;47.464;18.976;2024-01-15T01:01:10;98519.47;;;1.81;63.17
65666;BME280;52365;47.464;18.976;2024-01-15T01:01:31;98518.84;;;1.90;62.79
65666;BME280;52365;47.464;18.976;2024-01-15T01:01:52;98510.75;;;1.93;62.52
65666;BME280;52365;47.464;18.976;2024-01-15T01:02:13;98506.06;;;1.85;62.45
65666;BME280;52365;47.464;18.976;2024-01-15T01:02:29;98510.62;;;1.97;62.17
65666;BME280;52365;47.464;18.976;2024-01-15T01:02:50;98522.94;;;1.65;62.22
65666;BME280;52365;47.464;18.976;2024-01-15T01:03:11;98518.69;;;1.55;62.53
65666;BME280;52365;47.464;18.976;2024-01-15T01:03:32;98516.09;;;1.39;63.06
65666;BME280;52365;47.464;18.976;2024-01-15T01:03:53;98514.75;;;1.18;63.67
65666;BME280;52365;47.464;18.976;2024-01-15T01:04:14;98516.38;;;0.99;64.31
65666;BME280;52365;47.464;18.976;2024-01-15T01:04:30;98519.41;;;0.85;64.98
65666;BME280;52365;47.464;18.976;2024-01-15T01:04:51;98507.94;;;0.88;65.19
65666;BME280;52365;47.464;18.976;2024-01-15T01:05:12;98511.47;;;0.68;65.60
65666;BME280;52365;47.464;18.976;2024-01-15T01:05:34;98511.12;;;0.66;66.01
65666;BME280;52365;47.464;18.976;2024-01-15T01:05:55;98508.06;;;0.52;66.49
65666;BME280;52365;47.464;18.976;2024-01-15T01:06:16;98503.28;;;0.46;66.81
65666;BME280;52365;47.464;18.976;2024-01-15T01:06:36;98515.44;;;0.44;67.16
65666;BME280;52365;47.464;18.976;2024-01-15T01:06:57;98509.47;;;0.56;67.04
65666;BME280;52365;47.464;18.976;2024-01-15T01:07:18;98515.22;;;0.55;67.12
65666;BME280;52365;47.464;18.976;2024-01-15T01:07:40;98512.97;;;0.53;67.24
65666;BME280;52365;47.464;18.976;2024-01-15T01:08:01;98514.53;;;0.67;66.99
65666;BME280;52365;47.464;18.976;2024-01-15T01:08:22;98512.72;;;0.64;66.98
65666;BME280;52365;47.464;18.976;2024-01-15T01:08:43;98514.37;;;0.58;67.05
65666;BME280;52365;47.464;18.976;2024-01-15T01:08:59;98509.81;;;0.58;67.13
65666;BME280;52365;47.464;18.976;2024-01-15T01:09:15;98509.16;;;0.54;67.16
65666;BME280;52365;47.464;18.976;2024-01-15T01:09:36;98503.62;;;0.48;67.37
65666;BME280;52365;47.464;18.976;2024-01-15T01:09:52;98512.13;;;0.56;67.47
65666;BME280;52365;47.464;18.976;2024-01-15T01:10:08;98514.94;;;0.65;67.28
65666;BME280;52365;47.464;18.976;2024-01-15T01:10:29;98515.94;;;0.71;67.14
65666;BME280;52365;47.464;18.976;2024-01-15T01:10:50;98509.75;;;0.91;66.90
65666;BME280;52365;47.464;18.976;2024-01-15T01:11:14;98505.69;;;1.03;66.22
65666;BME280;52365;47.464;18.976;2024-01-15T01:11:35;98503.25;;;0.79;66.46
65666;BME280;52365;47.464;18.976;2024-01-15T01:11:56;98509.97;;;0.84;66.56
65666;BME280;52365;47.464;18.976;2024-01-15T01:12:17;98506.78;;;0.89;66.54
65666;BME280;52365;47.464;18.976;2024-01-15T01:12:38;98513.41;;;0.97;66.34
65666;BME280;52365;47.464;18.976;2024-01-15T01:12:59;98513.06;;;0.95;66.29
65666;BME280;52365;47.464;18.976;2024-01-15T01:13:20;98509.25;;;0.96;66.20
65666;BME280;52365;47.464;18.976;2024-01-15T01:13:41;98513.28;;;1.00;66.18
65666;BME280;52365;47.464;18.976;2024-01-15T01:14:02;98501.69;;;1.11;65.97
65666;BME280;52365;47.464;18.976;2024-01-15T01:14:23;98504.59;;;1.29;65.72
65666;BME280;52365;47.464;18.976;2024-01-15T01:14:44;98505.78;;;1.28;65.42
65666;BME280;52365;47.464;18.976;2024-01-15T01:15:00;98505.84;;;1.24;65.37
65666;BME280;52365;47.464;18.976;2024-01-15T01:15:21;98500.63;;;1.21;65.39
65666;BME280;52365;47.464;18.976;2024-01-15T01:15:42;98505.22;;;1.20;65.43
65666;BME280;52365;47.464;18.976;2024-01-15T01:16:03;98503.44;;;1.30;65.33
65666;BME280;52365;47.464;18.976;2024-01-15T01:16:24;98509.81;;;1.33;65.23
65666;BME280;52365;47.464;18.976;2024-01-15T01:16:45;98504.28;;;1.40;65.11
65666;BME280;52365;47.464;18.976;2024-01-15T01:17:06;98504.31;;;1.52;64.83
65666;BME280;52365;47.464;18.976;2024-01-15T01:17:22;98506.22;;;1.52;64.58
65666;BME280;52365;47.464;18.976;2024-01-15T01:17:43;98506.94;;;1.40;64.45
65666;BME280;52365;47.464;18.976;2024-01-15T01:18:04;98502.59;;;1.33;64.49
65666;BME280;52365;47.464;18.976;2024-01-15T01:18:25;98497.50;;;1.39;64.62
65666;BME280;52365;47.464;18.976;2024-01-15T01:18:41;98494.19;;;1.35;64.71
65666;BME280;52365;47.464;18.976;2024-01-15T01:19:02;98499.41;;;1.38;64.72
65666;BME280;52365;47.464;18.976;2024-01-15T01:19:23;98496.44;;;1.49;64.53
65666;BME280;52365;47.464;18.976;2024-01-15T01:19:43;98491.47;;;1.51;64.38
65666;BME280;52365;47.464;18.976;2024-01-15T01:20:05;98499.63;;;1.44;64.36
65666;BME280;52365;47.464;18.976;2024-01-15T01:20:24;98497.19;;;1.37;64.46
65666;BME280;52365;47.464;18.976;2024-01-15T01:20:45;98499.63;;;1.44;64.48
65666;BME280;52365;47.464;18.976;2024-01-15T01:21:05;98493.91;;;1.45;64.42
65666;BME280;52365;47.464;18.976;2024-01-15T01:21:26;98498.22;;;1.26;64.45
65666;BME280;52365;47.464;18.976;2024-01-15T01:21:47;98502.72;;;1.13;64.77
65666;BME280;52365;47.464;18.976;2024-01-15T01:22:08;98491.91;;;1.08;65.14
65666;BME280;52365;47.464;18.976;2024-01-15T01:22:24;98499.19;;;1.04;65.37
65666;BME280;52365;47.464;18.976;2024-01-15T01:22:45;98496.56;;;1.04;65.54
65666;BME280;52365;47.464;18.976;2024-01-15T01:23:06;98503.34;;;1.05;65.66
65666;BME280;52365;47.464;18.976;2024-01-15T01:23:27;98496.25;;;1.02;65.82
65666;BME280;52365;47.464;18.976;2024-01-15T01:23:48;98501.72;;;0.94;66.02
65666;BME280;52365;47.464;18.976;2024-01-15T01:24:09;98493.09;;;0.90;66.18
65666;BME280;52365;47.464;18.976;2024-01-15T01:24:26;98487.84;;;1.03;66.05
65666;BME280;52365;47.464;18.976;2024-01-15T01:24:47;98487.97;;;1.12;65.87
65666;BME280;52365;47.464;18.976;2024-01-15T01:25:09;98489.81;;;1.15;65.70
65666;BME280;52365;47.464;18.976;2024-01-15T01:25:30;98479.19;;;1.15;65.55
65666;BME280;52365;47.464;18.976;2024-01-15T01:25:50;98476.66;;;1.24;65.38
65666;BME280;52365;47.464;18.976;2024-01-15T01:26:15;98476.97;;;1.26;65.25
65666;BME280;52365;47.464;18.976;2024-01-15T01:26:36;98479.22;;;1.28;65.13
65666;BME280;52365;47.464;18.976;2024-01-15T01:26:52;98469.13;;;1.36;64.95
65666;BME280;52365;47.464;18.976;2024-01-15T01:27:08;98479.25;;;1.41;64.79
65666;BME280;52365;47.464;18.976;2024-01-15T01:27:29;98476.59;;;1.41;64.68
65666;BME280;52365;47.464;18.976;2024-01-15T01:27:50;98479.56;;;1.43;64.54
65666;BME280;52365;47.464;18.976;2024-01-15T01:28:11;98479.34;;;1.37;64.46
65666;BME280;52365;47.464;18.976;2024-01-15T01:28:32;98481.78;;;1.44;64.45
65666;BME280;52365;47.464;18.976;2024-01-15T01:28:52;98478.81;;;1.42;64.34
65666;BME280;52365;47.464;18.976;2024-01-15T01:29:13;98481.06;;;1.44;64.24
65666;BME280;52365;47.464;18.976;2024-01-15T01:29:35;98477.09;;;1.36;64.23
65666;BME280;52365;47.464;18.976;2024-01-15T01:29:55;98477.09;;;1.36;64.29
65666;BME280;52365;47.464;18.976;2024-01-15T01:30:11;98484.00;;;1.33;64.33
65666;BME280;52365;47.464;18.976;2024-01-15T01:30:32;98481.22;;;1.24;64.48
65666;BME280;52365;47.464;18.976;2024-01-15T01:30:53;98482.16;;;1.17;64.67
65666;BME280;52365;47.464;18.976;2024-01-15T01:31:14;98470.38;;;1.18;64.83
65666;BME280;52365;47.464;18.976;2024-01-15T01:31:42;98469.53;;;1.21;64.88
65666;BME280;52365;47.464;18.976;2024-01-15T01:32:03;98474.44;;;1.36;64.72
65666;BME280;52365;47.464;18.976;2024-01-15T01:32:24;98477.09;;;1.36;64.59
65666;BME280;52365;47.464;18.976;2024-01-15T01:32:45;98477.22;;;1.32;64.61
65666;BME280;52365;47.464;18.976;2024-01-15T01:33:01;98477.25;;;1.45;64.48
65666;BME280;52365;47.464;18.976;2024-01-15T01:33:22;98478.91;;;1.39;64.34
65666;BME280;52365;47.464;18.976;2024-01-15T01:33:43;98473.78;;;1.32;64.39
65666;BME280;52365;47.464;18.976;2024-01-15T01:34:04;98473.31;;;1.37;64.44
65666;BME280;52365;47.464;18.976;2024-01-15T01:34:25;98472.97;;;1.35;64.46
65666;BME280;52365;47.464;18.976;2024-01-15T01:34:46;98473.03;;;1.18;64.62
65666;BME280;52365;47.464;18.976;2024-01-15T01:35:07;98477.81;;;1.11;64.91
65666;BME280;52365;47.464;18.976;2024-01-15T01:35:28;98480.53;;;1.07;65.13
65666;BME280;52365;47.464;18.976;2024-01-15T01:35:48;98480.53;;;1.07;65.25
65666;BME280;52365;47.464;18.976;2024-01-15T01:36:07;98476.94;;;1.14;65.23
65666;BME280;52365;47.464;18.976;2024-01-15T01:36:31;98479.50;;;1.17;65.19
65666;BME280;52365;47.464;18.976;2024-01-15T01:36:52;98465.72;;;1.22;65.10
65666;BME280;52365;47.464;18.976;2024-01-15T01:37:14;98474.84;;;1.21;65.07
65666;BME280;52365;47.464;18.976;2024-01-15T01:37:29;98466.78;;;1.25;65.01
65666;BME280;52365;47.464;18.976;2024-01-15T01:37:50;98466.25;;;1.30;64.91
65666;BME280;52365;47.464;18.976;2024-01-15T01:38:12;98462.13;;;1.29;64.85
65666;BME280;52365;47.464;18.976;2024-01-15T01:38:33;98466.25;;;1.30;64.77
65666;BME280;52365;47.464;18.976;2024-01-15T01:38:53;98464.03;;;1.29;64.80
65666;BME280;52365;47.464;18.976;2024-01-15T01:39:10;98462.81;;;1.59;64.43
65666;BME280;52365;47.464;18.976;2024-01-15T01:39:31;98459.84;;;1.69;63.85
65666;BME280;52365;47.464;18.976;2024-01-15T01:39:52;98465.44;;;1.33;63.72
65666;BME280;52365;47.464;18.976;2024-01-15T01:40:13;98471.03;;;1.22;64.03
65666;BME280;52365;47.464;18.976;2024-01-15T01:40:34;98462.84;;;1.17;64.25
65666;BME280;52365;47.464;18.976;2024-01-15T01:40:55;98454.56;;;1.15;64.43
65666;BME280;52365;47.464;18.976;2024-01-15T01:41:15;98470.63;;;1.24;64.41
65666;BME280;52365;47.464;18.976;2024-01-15T01:41:38;98460.41;;;1.22;64.42
65666;BME280;52365;47.464;18.976;2024-01-15T01:41:59;98472.06;;;1.12;64.53
65666;BME280;52365;47.464;18.976;2024-01-15T01:42:20;98467.19;;;1.11;64.63
65666;BME280;52365;47.464;18.976;2024-01-15T01:42:41;98471.88;;;1.19;64.61
65666;BME280;52365;47.464;18.976;2024-01-15T01:43:04;98467.88;;;1.28;64.47
65666;BME280;52365;47.464;18.976;2024-01-15T01:43:25;98461.91;;;1.23;64.45
65666;BME280;52365;47.464;18.976;2024-01-15T01:43:45;98450.66;;;1.19;64.46
65666;BME280;52365;47.464;18.976;2024-01-15T01:44:06;98456.19;;;1.25;64.48
65666;BME280;52365;47.464;18.976;2024-01-15T01:44:28;98448.19;;;1.12;64.60
65666;BME280;52365;47.464;18.976;2024-01-15T01:44:49;98450.88;;;0.96;64.96
65666;BME280;52365;47.464;18.976;2024-01-15T01:45:10;98451.63;;;0.84;65.26
65666;BME280;52365;47.464;18.976;2024-01-15T01:45:31;98456.31;;;0.92;65.35
65666;BME280;52365;47.464;18.976;2024-01-15T01:45:55;98454.75;;;0.79;65.76
65666;BME280;52365;47.464;18.976;2024-01-15T01:46:12;98448.47;;;0.72;66.08
65666;BME280;52365;47.464;18.976;2024-01-15T01:46:33;98456.56;;;0.82;66.03
65666;BME280;52365;47.464;18.976;2024-01-15T01:46:56;98457.75;;;0.81;66.02
65666;BME280;52365;47.464;18.976;2024-01-15T01:47:18;98451.63;;;0.84;65.94
65666;BME280;52365;47.464;18.976;2024-01-15T01:47:39;98450.09;;;0.83;65.93